San José Airport
MGSJ : now visible

Airfield :











YOU CAN JOIN US ON...

 
LOGIN :

Register | Disclaimer

   EN    FR    IT 

 









Legend :    VFR   Marginal VFR   IFR   Intensive IFR   Very Intensive IFR
Visi :
Ceiling :
>= 8 km
>= 3000ft
5 to 8 km
1000 to 3000 ft
1500m to 5 km
500 to 1000 ft
800 to 1500m
200 to 500 ft
< 800m
< 200 ft
Symbols :   Thunderstorms  Fog  Heavy snow  Heavy precipitations  Wind > 20 kt






- Airport Elevation : 29 ft


MGSJ - San José

CURRENT METAR :
  • 122100Z 16010KT 9999 FEW016 FEW032CB 31/26 Q1010 A2983 CB NE/ENE

EXPIRED METARs :
  • 122000Z 16010KT 9999 FEW016 FEW030CB 32/26 Q1011 A2985 FEW200 CB NE/ENE
  • 121900Z 16010KT 9999 FEW016 32/26 Q1012 A2988 FEW200

TAF TAF MGSJ
Valid from the 12 at 18:00 until the 13 at 18:00 UTC


121725Z 1218/1318 00000KT 8000 SCT020 TX33/1220Z TN21/1312Z
TEMPO 1219/1312 8000 VCTSRA FEW025CB
BECMG 1315/1317 18008KT FEW018
TEMPO 1320/1324 8000 TSRA FEW025CB
MHTG FIR / North America



MET'MAP, your aeronautical weather chart ! - Copyright ORBIFLY December 2007 - Disclaimer

ORBIFLY MET'MAP TEAM :

Programming & Development : Alexandra Zaïnal
Concept & original design : Baudouin d'Aumeries
Assistance for programming : Marc-Olivier Méhu
Technical & hardware support : Manuel Goepfert

Contact : metmap@orbifly.com




SOURCES & CREDITS :

   NOAA       Earth
Advisory